createdAt,value
2022-10-18T00:00:04.789Z,14.25
2022-10-18T00:02:33.566Z,14.21
2022-10-18T00:05:03.641Z,14.18
2022-10-18T00:07:33.318Z,14.15
2022-10-18T00:10:02.863Z,14.19
2022-10-18T00:12:34.988Z,14.20
2022-10-18T00:15:06.117Z,14.18
2022-10-18T00:17:36.761Z,14.13
2022-10-18T00:20:07.484Z,14.10
2022-10-18T00:22:38.567Z,14.10
2022-10-18T00:25:09.109Z,14.04
2022-10-18T00:27:38.365Z,13.98
2022-10-18T00:30:08.598Z,13.94
2022-10-18T00:32:41.983Z,13.90
2022-10-18T00:35:11.339Z,13.90
2022-10-18T00:37:40.594Z,13.87
2022-10-18T00:40:10.951Z,13.86
2022-10-18T00:42:40.321Z,13.87
2022-10-18T00:45:18.635Z,13.90
2022-10-18T00:47:52.043Z,13.85
2022-10-18T00:50:22.135Z,13.81
2022-10-18T00:52:54.633Z,13.78
2022-10-18T00:55:24.164Z,13.75
2022-10-18T01:00:23.409Z,13.67
2022-10-18T01:02:53.241Z,13.61
2022-10-18T01:05:22.568Z,13.59
2022-10-18T01:08:01.090Z,13.59
2022-10-18T01:10:42.492Z,13.62
2022-10-18T01:13:26.798Z,13.65
2022-10-18T01:15:59.378Z,13.64
2022-10-18T01:18:35.444Z,13.62
2022-10-18T01:21:19.892Z,13.62
2022-10-18T01:24:21.305Z,13.61
2022-10-18T01:27:08.878Z,13.59
2022-10-18T01:29:47.243Z,13.45
2022-10-18T01:32:31.848Z,13.32
2022-10-18T01:35:04.115Z,13.27
2022-10-18T01:37:34.556Z,13.22
2022-10-18T01:40:06.671Z,13.17
2022-10-18T01:42:36.466Z,13.08
2022-10-18T01:45:07.891Z,13.07
2022-10-18T01:47:37.661Z,13.16
2022-10-18T01:50:08.200Z,13.18
2022-10-18T01:52:39.155Z,13.16
2022-10-18T01:55:09.027Z,13.14
2022-10-18T01:57:53.379Z,13.13
2022-10-18T02:00:27.868Z,13.09
2022-10-18T02:03:15.640Z,13.08
2022-10-18T02:06:04.755Z,13.01
2022-10-18T02:08:56.870Z,12.96
2022-10-18T02:11:27.517Z,13.02
2022-10-18T02:13:59.939Z,13.12
2022-10-18T02:16:44.329Z,13.16
2022-10-18T02:19:22.115Z,13.26
2022-10-18T02:21:52.791Z,13.23
2022-10-18T02:24:22.886Z,13.23
2022-10-18T02:26:52.140Z,13.29
2022-10-18T02:29:21.539Z,13.26
2022-10-18T02:31:54.288Z,13.11
2022-10-18T02:34:32.022Z,13.07
2022-10-18T02:37:02.725Z,13.08
2022-10-18T02:39:35.310Z,13.13
2022-10-18T02:42:06.615Z,13.15
2022-10-18T02:44:36.240Z,13.09
2022-10-18T02:47:07.022Z,13.00
2022-10-18T02:49:36.474Z,12.98
2022-10-18T02:52:05.999Z,12.91
2022-10-18T02:54:35.241Z,12.95
2022-10-18T02:57:04.620Z,13.03
2022-10-18T02:59:33.920Z,13.09
2022-10-18T03:02:03.193Z,13.14
2022-10-18T03:04:32.634Z,13.15
2022-10-18T03:07:01.883Z,13.21
2022-10-18T03:09:31.270Z,13.22
2022-10-18T03:12:01.051Z,13.22
2022-10-18T03:14:30.435Z,13.28
2022-10-18T03:16:59.964Z,13.34
2022-10-18T03:19:29.251Z,13.36
2022-10-18T03:21:58.557Z,13.39
2022-10-18T03:24:27.801Z,13.38
2022-10-18T03:26:57.249Z,13.37
2022-10-18T03:29:26.678Z,13.32
2022-10-18T03:31:55.938Z,13.33
2022-10-18T03:34:25.160Z,13.38
2022-10-18T03:36:55.280Z,13.36
2022-10-18T03:39:24.578Z,13.29
2022-10-18T03:41:53.867Z,13.23
2022-10-18T03:44:23.178Z,13.21
2022-10-18T03:46:52.416Z,13.18
2022-10-18T03:49:21.730Z,13.14
2022-10-18T03:51:51.177Z,13.09
2022-10-18T03:54:20.706Z,13.07
2022-10-18T03:56:50.026Z,13.03
2022-10-18T03:59:19.536Z,12.98
2022-10-18T04:01:48.832Z,12.92
2022-10-18T04:04:18.205Z,12.89
2022-10-18T04:06:47.522Z,12.84
2022-10-18T04:09:16.925Z,12.73
2022-10-18T04:11:46.269Z,12.69
2022-10-18T04:14:15.877Z,12.68
2022-10-18T04:16:45.389Z,12.66
2022-10-18T04:19:15.053Z,12.64
2022-10-18T04:21:44.319Z,12.61
2022-10-18T04:24:13.825Z,12.58
2022-10-18T04:26:43.128Z,12.58
2022-10-18T04:29:12.443Z,12.59
2022-10-18T04:31:41.862Z,12.59
2022-10-18T04:34:11.920Z,12.57
2022-10-18T04:36:41.365Z,12.56
2022-10-18T04:39:10.741Z,12.57
2022-10-18T04:41:40.215Z,12.61
2022-10-18T04:44:09.560Z,12.61
2022-10-18T04:46:38.810Z,12.49
2022-10-18T04:49:08.159Z,12.30
2022-10-18T04:51:38.180Z,12.21
2022-10-18T04:54:07.405Z,12.17
2022-10-18T04:56:36.667Z,12.15
2022-10-18T04:59:06.033Z,12.16
2022-10-18T05:01:35.460Z,12.18
2022-10-18T05:04:04.950Z,12.19
2022-10-18T05:06:34.397Z,12.22
2022-10-18T05:09:03.641Z,12.23
2022-10-18T05:11:33.014Z,12.24
2022-10-18T05:14:02.388Z,12.24
2022-10-18T05:16:32.485Z,12.28
2022-10-18T05:19:02.075Z,12.27
2022-10-18T05:21:31.321Z,12.28
2022-10-18T05:24:00.673Z,12.30
2022-10-18T05:26:29.957Z,12.25
2022-10-18T05:28:59.591Z,12.22
2022-10-18T05:31:29.217Z,12.19
2022-10-18T05:33:58.832Z,12.15
2022-10-18T05:36:28.667Z,12.07
2022-10-18T05:39:00.956Z,11.99
2022-10-18T05:41:29.126Z,11.93
2022-10-18T05:43:58.474Z,11.89
2022-10-18T05:46:27.934Z,11.89
2022-10-18T05:48:57.329Z,11.86
2022-10-18T05:51:26.659Z,11.82
2022-10-18T05:53:56.082Z,11.74
2022-10-18T05:56:25.512Z,11.68
2022-10-18T05:58:54.809Z,11.66
2022-10-18T06:01:24.355Z,11.66
2022-10-18T06:03:53.596Z,11.61
2022-10-18T06:06:22.891Z,11.55
2022-10-18T06:08:52.229Z,11.50
2022-10-18T06:11:21.987Z,11.48
2022-10-18T06:13:52.875Z,11.43
2022-10-18T06:16:23.204Z,11.39
2022-10-18T06:18:55.226Z,11.33
2022-10-18T06:21:25.572Z,11.27
2022-10-18T06:23:57.368Z,11.23
2022-10-18T06:26:28.063Z,11.19
2022-10-18T06:28:57.529Z,11.17
2022-10-18T06:31:26.794Z,11.18
2022-10-18T06:33:58.320Z,11.08
2022-10-18T06:36:27.930Z,10.96
2022-10-18T06:38:57.778Z,10.94
2022-10-18T06:41:27.177Z,10.94
2022-10-18T06:43:58.629Z,10.99
2022-10-18T06:46:28.047Z,10.97
2022-10-18T06:48:57.626Z,10.94
2022-10-18T06:51:26.887Z,10.70
2022-10-18T06:54:13.307Z,10.66
2022-10-18T06:56:27.208Z,10.65
2022-10-18T06:58:56.542Z,10.70
2022-10-18T07:01:26.039Z,10.50
2022-10-18T07:03:56.161Z,10.54
2022-10-18T07:06:26.291Z,10.64
2022-10-18T07:08:55.606Z,10.67
2022-10-18T07:11:26.244Z,10.68
2022-10-18T07:13:59.956Z,10.79
2022-10-18T07:16:29.478Z,11.00
2022-10-18T07:18:58.894Z,11.18
2022-10-18T07:21:28.670Z,11.29
2022-10-18T07:23:58.282Z,11.42
2022-10-18T07:26:33.249Z,11.54
2022-10-18T07:29:08.756Z,11.61
2022-10-18T07:31:41.849Z,11.68
2022-10-18T07:34:13.195Z,11.77
2022-10-18T07:36:42.956Z,11.89
2022-10-18T07:39:12.200Z,11.99
2022-10-18T07:41:41.436Z,12.10
2022-10-18T07:44:11.010Z,12.20
2022-10-18T07:46:40.256Z,12.29
2022-10-18T07:49:09.629Z,12.42
2022-10-18T07:51:39.060Z,12.47
2022-10-18T07:54:09.337Z,12.56
2022-10-18T07:56:38.572Z,12.65
2022-10-18T07:59:07.836Z,12.74
2022-10-18T08:01:37.161Z,12.82
2022-10-18T08:04:08.440Z,12.91
2022-10-18T08:06:37.727Z,13.02
2022-10-18T08:09:07.246Z,13.17
2022-10-18T08:11:36.515Z,13.31
2022-10-18T08:14:05.909Z,13.42
2022-10-18T08:16:35.213Z,13.55
2022-10-18T08:19:04.555Z,13.53
2022-10-18T08:21:33.866Z,13.63
2022-10-18T08:24:03.329Z,13.68
2022-10-18T08:26:32.606Z,13.84
2022-10-18T08:31:33.099Z,14.34
2022-10-18T08:34:02.456Z,15.50
2022-10-18T08:36:32.023Z,17.51
2022-10-18T08:39:02.826Z,19.15
2022-10-18T08:41:41.131Z,20.47
2022-10-18T08:44:22.027Z,21.27
2022-10-18T08:47:04.030Z,22.19
2022-10-18T08:49:40.856Z,23.05
2022-10-18T08:52:22.111Z,23.11
2022-10-18T08:55:11.332Z,23.56
2022-10-18T08:57:40.714Z,23.76
2022-10-18T09:00:19.146Z,24.29
2022-10-18T09:03:06.371Z,25.61
2022-10-18T09:05:53.181Z,26.14
2022-10-18T09:08:34.690Z,26.68
2022-10-18T09:11:13.216Z,26.94
2022-10-18T09:13:48.402Z,27.03
2022-10-18T09:16:22.735Z,27.81
2022-10-18T09:19:02.647Z,27.16
2022-10-18T09:21:55.497Z,26.40
2022-10-18T09:24:40.075Z,27.70
2022-10-18T09:27:19.979Z,28.58
2022-10-18T09:30:01.403Z,28.95
2022-10-18T09:32:49.301Z,29.27
2022-10-18T09:35:24.467Z,29.86
2022-10-18T09:37:57.018Z,29.00
2022-10-18T09:40:28.906Z,28.77
2022-10-18T09:43:13.233Z,28.99
2022-10-18T09:45:45.626Z,29.24
2022-10-18T09:48:21.130Z,29.86
2022-10-18T09:50:58.885Z,29.66
2022-10-18T09:53:46.382Z,29.63
2022-10-18T09:56:21.839Z,30.22
2022-10-18T09:58:52.132Z,30.28
2022-10-18T10:01:24.737Z,30.26
2022-10-18T10:03:54.524Z,29.40
2022-10-18T10:06:32.487Z,29.48
2022-10-18T10:09:10.589Z,28.70
2022-10-18T10:11:44.384Z,30.03
2022-10-18T10:14:27.958Z,31.09
2022-10-18T10:17:02.316Z,30.24
2022-10-18T10:19:40.831Z,29.44
2022-10-18T10:22:11.977Z,29.00
2022-10-18T10:24:49.555Z,29.79
2022-10-18T10:27:24.945Z,28.69
2022-10-18T10:29:58.180Z,27.57
2022-10-18T10:32:31.501Z,28.56
2022-10-18T10:35:00.957Z,28.27
2022-10-18T10:37:36.422Z,28.72
2022-10-18T10:40:19.837Z,29.60
2022-10-18T10:43:08.810Z,29.63
2022-10-18T10:45:32.759Z,30.19
2022-10-18T10:48:08.427Z,30.54
2022-10-18T10:50:53.112Z,30.26
2022-10-18T10:53:33.588Z,29.54
2022-10-18T10:56:03.317Z,28.86
2022-10-18T10:58:38.462Z,27.66
2022-10-18T11:01:27.621Z,26.36
2022-10-18T11:04:00.337Z,26.12
2022-10-18T11:06:41.932Z,27.02
2022-10-18T11:09:31.260Z,28.52
2022-10-18T11:12:03.750Z,28.89
2022-10-18T11:14:36.176Z,27.54
2022-10-18T11:17:42.653Z,28.70
2022-10-18T11:20:15.384Z,28.53
2022-10-18T11:22:56.944Z,27.62
2022-10-18T11:25:29.463Z,27.93
2022-10-18T11:28:05.451Z,27.20
2022-10-18T11:30:50.109Z,26.35
2022-10-18T11:33:38.308Z,26.19
2022-10-18T11:36:05.546Z,26.54
2022-10-18T11:38:40.678Z,27.84
2022-10-18T11:41:33.271Z,28.11
2022-10-18T11:44:04.991Z,28.47
2022-10-18T11:46:37.559Z,28.38
2022-10-18T11:49:26.643Z,28.31
2022-10-18T11:52:17.340Z,27.98
2022-10-18T11:54:52.557Z,28.23
2022-10-18T11:57:34.303Z,27.29
2022-10-18T12:00:16.632Z,27.41
2022-10-18T12:03:08.403Z,27.35
2022-10-18T12:05:39.845Z,25.13
2022-10-18T12:08:12.226Z,25.18
2022-10-18T12:10:46.803Z,23.98
2022-10-18T12:13:21.980Z,22.75
2022-10-18T12:15:52.366Z,22.46
2022-10-18T12:18:24.285Z,23.36
2022-10-18T12:20:56.903Z,23.73
2022-10-18T12:23:32.399Z,23.52
2022-10-18T12:26:07.344Z,21.97
2022-10-18T12:28:51.718Z,22.01
2022-10-18T12:31:31.118Z,22.37
2022-10-18T12:34:03.814Z,22.99
2022-10-18T12:36:56.057Z,22.68
2022-10-18T12:39:38.747Z,23.01
2022-10-18T12:41:59.765Z,22.14
2022-10-18T12:44:34.210Z,22.23
2022-10-18T12:47:05.722Z,21.98
2022-10-18T12:49:40.274Z,21.64
2022-10-18T12:52:21.394Z,20.99
2022-10-18T12:55:12.822Z,21.81
2022-10-18T12:57:57.745Z,21.55
2022-10-18T13:00:36.196Z,21.79
2022-10-18T13:03:19.313Z,21.82
2022-10-18T13:05:53.903Z,22.08
2022-10-18T13:08:37.144Z,21.95
2022-10-18T13:11:12.904Z,22.09
2022-10-18T13:14:11.247Z,21.87
2022-10-18T13:16:54.206Z,21.90
2022-10-18T13:19:29.440Z,22.08
2022-10-18T13:22:23.460Z,21.82
2022-10-18T13:25:00.563Z,21.15
2022-10-18T13:27:39.010Z,21.38
2022-10-18T13:30:32.587Z,21.00
2022-10-18T13:33:30.965Z,21.57
2022-10-18T13:36:12.874Z,21.27
2022-10-18T13:38:47.778Z,20.98
2022-10-18T13:41:19.995Z,20.79
2022-10-18T13:44:07.487Z,20.68
2022-10-18T13:46:45.545Z,20.68
2022-10-18T13:49:24.276Z,20.51
2022-10-18T13:52:16.414Z,20.13
2022-10-18T13:54:57.952Z,19.89
2022-10-18T13:57:36.579Z,19.75
2022-10-18T14:00:26.999Z,19.20
2022-10-18T14:03:51.509Z,18.89
2022-10-18T14:06:11.630Z,18.98
2022-10-18T14:08:59.038Z,18.98
2022-10-18T14:11:46.155Z,18.52
2022-10-18T14:14:17.896Z,18.53
2022-10-18T14:16:49.035Z,18.30
2022-10-18T14:19:37.537Z,18.40
2022-10-18T14:22:27.749Z,18.26
2022-10-18T14:24:59.118Z,18.24
2022-10-18T14:27:32.533Z,18.14
2022-10-18T14:30:17.290Z,18.08
2022-10-18T14:32:48.937Z,17.98
2022-10-18T14:35:37.368Z,17.94
2022-10-18T14:37:54.737Z,17.96
2022-10-18T14:40:39.047Z,17.77
2022-10-18T14:43:12.051Z,17.71
2022-10-18T14:45:42.602Z,17.65
2022-10-18T14:48:20.833Z,17.53
2022-10-18T14:50:54.982Z,17.43
2022-10-18T14:53:25.164Z,17.29
2022-10-18T14:56:00.939Z,17.10
2022-10-18T14:58:30.654Z,17.10
2022-10-18T15:01:00.483Z,17.04
2022-10-18T15:03:32.983Z,16.93
2022-10-18T15:06:05.188Z,16.87
2022-10-18T15:08:42.302Z,16.80
2022-10-18T15:11:14.583Z,16.76
2022-10-18T15:17:31.387Z,16.56
2022-10-18T15:20:06.199Z,16.43
2022-10-18T15:22:35.786Z,16.32
2022-10-18T15:25:15.118Z,16.23
2022-10-18T15:27:47.165Z,16.16
2022-10-18T15:30:22.667Z,16.07
2022-10-18T15:32:55.045Z,15.98
2022-10-18T15:35:27.591Z,15.92
2022-10-18T15:37:56.807Z,15.86
2022-10-18T15:40:35.181Z,15.82
2022-10-18T15:43:07.375Z,15.76
2022-10-18T15:45:39.399Z,15.68
2022-10-18T15:48:13.581Z,15.53
2022-10-18T15:50:45.346Z,15.42
2022-10-18T15:53:34.798Z,15.37
2022-10-18T15:56:32.236Z,15.32
2022-10-18T15:59:04.959Z,15.21
2022-10-18T16:01:38.117Z,15.12
2022-10-18T16:04:13.546Z,15.02
2022-10-18T16:06:42.992Z,14.93
2022-10-18T16:09:17.800Z,14.85
2022-10-18T16:11:52.825Z,14.79
2022-10-18T16:14:21.460Z,14.69
2022-10-18T16:16:53.318Z,14.60
2022-10-18T16:19:22.990Z,14.49
2022-10-18T16:21:53.889Z,14.38
2022-10-18T16:24:23.613Z,14.33
2022-10-18T16:26:54.079Z,14.23
2022-10-18T16:29:29.236Z,14.11
2022-10-18T16:31:58.704Z,13.98
2022-10-18T16:34:28.562Z,13.87
2022-10-18T16:36:57.853Z,13.77
2022-10-18T16:39:28.441Z,13.64
2022-10-18T16:41:57.867Z,13.55
2022-10-18T16:44:27.408Z,13.48
2022-10-18T16:46:56.660Z,13.39
2022-10-18T16:49:27.131Z,13.33
2022-10-18T16:51:56.641Z,13.33
2022-10-18T16:54:26.018Z,13.28
2022-10-18T16:56:55.378Z,13.19
2022-10-18T16:59:30.201Z,13.13
2022-10-18T17:02:01.130Z,13.03
2022-10-18T17:04:30.410Z,12.92
2022-10-18T17:06:59.884Z,12.81
2022-10-18T17:09:29.256Z,12.76
2022-10-18T17:11:58.742Z,12.70
2022-10-18T17:14:28.079Z,12.50
2022-10-18T17:16:57.645Z,12.32
2022-10-18T17:19:26.920Z,12.20
2022-10-18T17:22:01.565Z,12.06
2022-10-18T17:24:27.207Z,12.00
2022-10-18T17:26:56.688Z,11.94
2022-10-18T17:29:26.106Z,11.86
2022-10-18T17:31:55.398Z,11.81
2022-10-18T17:34:24.748Z,11.76
2022-10-18T17:36:54.514Z,11.71
2022-10-18T17:39:27.246Z,11.68
2022-10-18T17:41:56.551Z,11.61
2022-10-18T17:44:26.004Z,11.53
2022-10-18T17:46:55.360Z,11.46
2022-10-18T17:49:24.791Z,11.41
2022-10-18T17:51:54.087Z,11.34
2022-10-18T17:54:23.611Z,11.38
2022-10-18T17:56:53.859Z,11.33
2022-10-18T17:59:24.035Z,11.27
2022-10-18T18:01:54.012Z,11.24
2022-10-18T18:04:24.262Z,11.20
2022-10-18T18:06:53.808Z,11.15
2022-10-18T18:09:23.081Z,11.10
2022-10-18T18:11:53.728Z,10.90
2022-10-18T18:14:22.979Z,10.82
2022-10-18T18:16:52.309Z,10.80
2022-10-18T18:19:22.203Z,10.78
2022-10-18T18:21:53.469Z,10.87
2022-10-18T18:24:24.738Z,10.89
2022-10-18T18:26:55.304Z,10.86
2022-10-18T18:29:25.901Z,10.80
2022-10-18T18:31:55.570Z,10.78
2022-10-18T18:34:25.099Z,10.71
2022-10-18T18:36:54.902Z,10.72
2022-10-18T18:39:26.262Z,10.71
2022-10-18T18:41:55.633Z,10.74
2022-10-18T18:44:25.237Z,10.69
2022-10-18T18:46:54.928Z,10.55
2022-10-18T18:49:24.399Z,10.46
2022-10-18T18:51:54.418Z,10.41
2022-10-18T18:54:24.949Z,10.36
2022-10-18T18:56:54.355Z,10.34
2022-10-18T18:59:23.613Z,10.32
2022-10-18T19:01:53.289Z,10.25
2022-10-18T19:04:22.651Z,10.20
2022-10-18T19:06:52.174Z,10.19
2022-10-18T19:09:26.175Z,10.15
2022-10-18T19:11:56.945Z,10.13
2022-10-18T19:14:26.562Z,10.12
2022-10-18T19:16:59.742Z,10.10
2022-10-18T19:19:30.913Z,10.04
2022-10-18T19:22:01.990Z,10.00
2022-10-18T19:24:32.346Z,9.94
2022-10-18T19:27:04.982Z,9.91
2022-10-18T19:29:34.596Z,9.84
2022-10-18T19:32:07.528Z,9.77
2022-10-18T19:34:37.182Z,9.75
2022-10-18T19:37:06.772Z,9.75
2022-10-18T19:39:36.642Z,9.73
2022-10-18T19:42:10.605Z,9.72
2022-10-18T19:44:41.128Z,9.73
2022-10-18T19:47:12.552Z,9.76
2022-10-18T19:49:43.519Z,9.75
2022-10-18T19:52:13.150Z,9.75
2022-10-18T19:54:42.798Z,9.80
2022-10-18T19:57:12.210Z,9.77
2022-10-18T20:02:18.083Z,9.61
2022-10-18T20:04:47.534Z,9.61
2022-10-18T20:07:17.027Z,9.58
2022-10-18T20:09:48.022Z,9.60
2022-10-18T20:12:17.471Z,9.60
2022-10-18T20:14:47.123Z,9.59
2022-10-18T20:17:16.789Z,9.62
2022-10-18T20:19:46.145Z,9.59
2022-10-18T20:22:15.628Z,9.57
2022-10-18T20:24:45.021Z,9.54
2022-10-18T20:27:14.561Z,9.51
2022-10-18T20:29:43.899Z,9.46
2022-10-18T20:32:13.191Z,9.35
2022-10-18T20:34:42.596Z,9.25
2022-10-18T20:37:11.914Z,9.24
2022-10-18T20:39:41.255Z,9.21
2022-10-18T20:42:10.545Z,9.19
2022-10-18T20:44:41.457Z,9.28
2022-10-18T20:47:11.081Z,9.32
2022-10-18T20:49:40.586Z,9.32
2022-10-18T20:52:10.159Z,9.38
2022-10-18T20:54:39.601Z,9.39
2022-10-18T20:57:09.211Z,9.44
2022-10-18T20:59:38.741Z,9.45
2022-10-18T21:02:08.517Z,9.45
2022-10-18T21:04:40.085Z,9.48
2022-10-18T21:07:09.090Z,9.36
2022-10-18T21:09:38.530Z,9.32
2022-10-18T21:12:08.068Z,9.21
2022-10-18T21:14:37.749Z,9.15
2022-10-18T21:17:07.280Z,9.09
2022-10-18T21:19:37.030Z,9.09
2022-10-18T21:22:06.533Z,9.12
2022-10-18T21:24:36.177Z,9.11
2022-10-18T21:27:05.512Z,9.06
2022-10-18T21:29:35.469Z,9.10
2022-10-18T21:32:04.907Z,9.13
2022-10-18T21:34:34.341Z,9.15
2022-10-18T21:37:03.663Z,9.16
2022-10-18T21:39:32.951Z,9.11
2022-10-18T21:42:02.260Z,9.11
2022-10-18T21:44:31.887Z,9.08
2022-10-18T21:47:01.473Z,9.05
2022-10-18T21:49:32.644Z,9.01
2022-10-18T21:52:06.669Z,9.00
2022-10-18T21:54:36.105Z,8.96
2022-10-18T21:57:05.692Z,8.77
2022-10-18T21:59:34.936Z,8.76
2022-10-18T22:02:04.891Z,8.77
2022-10-18T22:04:35.851Z,8.73
2022-10-18T22:07:05.537Z,8.76
2022-10-18T22:09:36.549Z,8.79
2022-10-18T22:12:06.776Z,8.85
2022-10-18T22:14:38.417Z,8.81
2022-10-18T22:17:07.920Z,8.84
2022-10-18T22:19:37.550Z,8.82
2022-10-18T22:22:07.017Z,8.75
2022-10-18T22:27:05.900Z,8.62
2022-10-18T22:29:35.540Z,8.62
2022-10-18T22:32:05.050Z,8.55
2022-10-18T22:34:34.311Z,8.55
2022-10-18T22:37:03.628Z,8.62
2022-10-18T22:39:33.192Z,8.61
2022-10-18T22:42:02.785Z,8.55
2022-10-18T22:44:32.131Z,8.45
2022-10-18T22:47:01.728Z,8.45
2022-10-18T22:49:33.603Z,8.43
2022-10-18T22:52:03.069Z,8.42
2022-10-18T22:54:32.603Z,8.38
2022-10-18T22:57:01.992Z,8.33
2022-10-18T22:59:31.275Z,8.30
2022-10-18T23:02:00.878Z,8.26
2022-10-18T23:04:30.131Z,8.20
2022-10-18T23:06:59.467Z,8.23
2022-10-18T23:09:28.920Z,8.22
2022-10-18T23:11:58.331Z,8.19
2022-10-18T23:14:27.775Z,8.20
2022-10-18T23:16:57.216Z,8.19
2022-10-18T23:19:26.476Z,8.15
2022-10-18T23:21:55.862Z,8.08
2022-10-18T23:24:25.478Z,8.05
2022-10-18T23:26:54.847Z,8.07
2022-10-18T23:29:24.557Z,8.05
2022-10-18T23:31:53.935Z,8.04
2022-10-18T23:34:23.581Z,7.94
2022-10-18T23:36:53.019Z,7.86
2022-10-18T23:39:22.364Z,7.85
2022-10-18T23:41:51.790Z,7.85
2022-10-18T23:44:21.130Z,7.84
2022-10-18T23:46:50.501Z,7.84
2022-10-18T23:49:19.976Z,7.84
2022-10-18T23:51:49.243Z,7.81
2022-10-18T23:54:18.559Z,7.82
2022-10-18T23:56:48.206Z,7.76
2022-10-18T23:59:17.719Z,7.76
